sensor_id;sensor_type;location;lat;lon;timestamp;P1;durP1;ratioP1;P2;durP2;ratioP2
29662;SDS011;16578;53.266;7.920;2023-01-06T00:01:06;26.17;;;14.50;;
29662;SDS011;16578;53.266;7.920;2023-01-06T00:03:35;23.65;;;16.58;;
29662;SDS011;16578;53.266;7.920;2023-01-06T00:06:01;25.73;;;16.33;;
29662;SDS011;16578;53.266;7.920;2023-01-06T00:08:29;27.03;;;16.00;;
29662;SDS011;16578;53.266;7.920;2023-01-06T00:10:55;22.95;;;14.40;;
29662;SDS011;16578;53.266;7.920;2023-01-06T00:13:20;25.17;;;15.05;;
29662;SDS011;16578;53.266;7.920;2023-01-06T00:15:46;24.00;;;15.15;;
29662;SDS011;16578;53.266;7.920;2023-01-06T00:18:12;20.30;;;14.15;;
29662;SDS011;16578;53.266;7.920;2023-01-06T00:20:38;23.70;;;14.77;;
29662;SDS011;16578;53.266;7.920;2023-01-06T00:23:03;25.92;;;15.30;;
29662;SDS011;16578;53.266;7.920;2023-01-06T00:25:29;28.00;;;19.13;;
29662;SDS011;16578;53.266;7.920;2023-01-06T00:27:55;28.48;;;17.45;;
29662;SDS011;16578;53.266;7.920;2023-01-06T00:30:20;25.73;;;18.92;;
29662;SDS011;16578;53.266;7.920;2023-01-06T00:32:46;30.35;;;18.38;;
29662;SDS011;16578;53.266;7.920;2023-01-06T00:35:11;26.05;;;18.02;;
29662;SDS011;16578;53.266;7.920;2023-01-06T00:37:37;28.33;;;17.35;;
29662;SDS011;16578;53.266;7.920;2023-01-06T00:40:03;25.73;;;18.42;;
29662;SDS011;16578;53.266;7.920;2023-01-06T00:42:29;30.63;;;21.17;;
29662;SDS011;16578;53.266;7.920;2023-01-06T00:44:54;28.23;;;16.73;;
29662;SDS011;16578;53.266;7.920;2023-01-06T00:47:20;26.27;;;16.70;;
29662;SDS011;16578;53.266;7.920;2023-01-06T00:49:45;27.90;;;18.27;;
29662;SDS011;16578;53.266;7.920;2023-01-06T00:52:11;24.88;;;18.25;;
29662;SDS011;16578;53.266;7.920;2023-01-06T00:54:37;26.23;;;16.30;;
29662;SDS011;16578;53.266;7.920;2023-01-06T00:57:04;25.58;;;18.73;;
29662;SDS011;16578;53.266;7.920;2023-01-06T00:59:30;20.47;;;13.63;;
29662;SDS011;16578;53.266;7.920;2023-01-06T01:01:56;25.38;;;17.33;;
29662;SDS011;16578;53.266;7.920;2023-01-06T01:04:22;27.50;;;17.92;;
29662;SDS011;16578;53.266;7.920;2023-01-06T01:06:49;25.45;;;17.55;;
29662;SDS011;16578;53.266;7.920;2023-01-06T01:09:19;21.92;;;15.73;;
29662;SDS011;16578;53.266;7.920;2023-01-06T01:11:47;28.60;;;18.23;;
29662;SDS011;16578;53.266;7.920;2023-01-06T01:14:32;33.47;;;18.75;;
29662;SDS011;16578;53.266;7.920;2023-01-06T01:16:58;29.75;;;18.05;;
29662;SDS011;16578;53.266;7.920;2023-01-06T01:19:24;24.25;;;17.67;;
29662;SDS011;16578;53.266;7.920;2023-01-06T01:21:51;29.20;;;18.38;;
29662;SDS011;16578;53.266;7.920;2023-01-06T01:24:16;29.77;;;17.85;;
29662;SDS011;16578;53.266;7.920;2023-01-06T01:26:43;29.75;;;18.05;;
29662;SDS011;16578;53.266;7.920;2023-01-06T01:29:10;30.80;;;18.55;;
29662;SDS011;16578;53.266;7.920;2023-01-06T01:31:36;25.83;;;16.77;;
29662;SDS011;16578;53.266;7.920;2023-01-06T01:34:02;23.75;;;17.23;;
29662;SDS011;16578;53.266;7.920;2023-01-06T01:36:27;33.30;;;18.70;;
29662;SDS011;16578;53.266;7.920;2023-01-06T01:38:54;32.20;;;17.95;;
29662;SDS011;16578;53.266;7.920;2023-01-06T01:41:21;29.83;;;16.52;;
29662;SDS011;16578;53.266;7.920;2023-01-06T01:46:22;22.30;;;13.90;;
29662;SDS011;16578;53.266;7.920;2023-01-06T01:48:54;25.08;;;17.10;;
29662;SDS011;16578;53.266;7.920;2023-01-06T01:51:26;24.95;;;15.23;;
29662;SDS011;16578;53.266;7.920;2023-01-06T01:53:54;22.95;;;15.88;;
29662;SDS011;16578;53.266;7.920;2023-01-06T01:56:24;25.33;;;15.07;;
29662;SDS011;16578;53.266;7.920;2023-01-06T01:58:57;27.02;;;18.35;;
29662;SDS011;16578;53.266;7.920;2023-01-06T02:01:29;24.52;;;17.45;;
29662;SDS011;16578;53.266;7.920;2023-01-06T02:03:55;27.23;;;18.80;;
29662;SDS011;16578;53.266;7.920;2023-01-06T02:06:21;27.40;;;17.52;;
29662;SDS011;16578;53.266;7.920;2023-01-06T02:09:10;27.60;;;17.45;;
29662;SDS011;16578;53.266;7.920;2023-01-06T02:11:40;26.60;;;17.50;;
29662;SDS011;16578;53.266;7.920;2023-01-06T02:14:14;29.73;;;19.67;;
29662;SDS011;16578;53.266;7.920;2023-01-06T02:16:49;26.40;;;18.02;;
29662;SDS011;16578;53.266;7.920;2023-01-06T02:34:24;23.45;;;15.93;;
29662;SDS011;16578;53.266;7.920;2023-01-06T02:37:04;18.27;;;14.35;;
29662;SDS011;16578;53.266;7.920;2023-01-06T02:42:38;26.92;;;17.63;;
29662;SDS011;16578;53.266;7.920;2023-01-06T02:48:01;21.67;;;16.65;;
29662;SDS011;16578;53.266;7.920;2023-01-06T02:51:23;23.10;;;16.80;;
29662;SDS011;16578;53.266;7.920;2023-01-06T02:56:30;18.88;;;14.48;;
29662;SDS011;16578;53.266;7.920;2023-01-06T02:59:02;18.88;;;14.68;;
29662;SDS011;16578;53.266;7.920;2023-01-06T03:01:37;19.35;;;14.70;;
29662;SDS011;16578;53.266;7.920;2023-01-06T03:04:07;19.58;;;13.77;;
29662;SDS011;16578;53.266;7.920;2023-01-06T03:06:36;15.85;;;12.02;;
29662;SDS011;16578;53.266;7.920;2023-01-06T03:09:08;18.52;;;13.05;;
29662;SDS011;16578;53.266;7.920;2023-01-06T03:11:38;16.15;;;12.65;;
29662;SDS011;16578;53.266;7.920;2023-01-06T03:14:09;16.88;;;12.43;;
29662;SDS011;16578;53.266;7.920;2023-01-06T03:16:41;15.68;;;12.00;;
29662;SDS011;16578;53.266;7.920;2023-01-06T03:19:07;22.15;;;13.07;;
29662;SDS011;16578;53.266;7.920;2023-01-06T03:21:34;14.18;;;11.38;;
29662;SDS011;16578;53.266;7.920;2023-01-06T03:24:04;15.80;;;11.65;;
29662;SDS011;16578;53.266;7.920;2023-01-06T03:26:30;13.38;;;10.00;;
29662;SDS011;16578;53.266;7.920;2023-01-06T03:28:56;12.57;;;10.68;;
29662;SDS011;16578;53.266;7.920;2023-01-06T03:39:40;12.77;;;9.68;;
29662;SDS011;16578;53.266;7.920;2023-01-06T03:42:36;14.43;;;10.38;;
29662;SDS011;16578;53.266;7.920;2023-01-06T03:48:03;13.90;;;9.13;;
29662;SDS011;16578;53.266;7.920;2023-01-06T03:50:36;11.02;;;8.80;;
29662;SDS011;16578;53.266;7.920;2023-01-06T03:55:42;13.98;;;8.32;;
29662;SDS011;16578;53.266;7.920;2023-01-06T03:58:11;10.15;;;7.43;;
29662;SDS011;16578;53.266;7.920;2023-01-06T04:00:41;11.63;;;7.72;;
29662;SDS011;16578;53.266;7.920;2023-01-06T04:03:13;10.77;;;8.10;;
29662;SDS011;16578;53.266;7.920;2023-01-06T04:05:39;12.82;;;8.60;;
29662;SDS011;16578;53.266;7.920;2023-01-06T04:08:04;10.35;;;7.40;;
29662;SDS011;16578;53.266;7.920;2023-01-06T04:10:30;13.18;;;8.45;;
29662;SDS011;16578;53.266;7.920;2023-01-06T04:12:55;11.98;;;7.70;;
29662;SDS011;16578;53.266;7.920;2023-01-06T04:15:22;10.30;;;7.88;;
29662;SDS011;16578;53.266;7.920;2023-01-06T04:17:49;9.05;;;7.57;;
29662;SDS011;16578;53.266;7.920;2023-01-06T04:20:17;11.55;;;7.10;;
29662;SDS011;16578;53.266;7.920;2023-01-06T04:22:44;11.55;;;7.97;;
29662;SDS011;16578;53.266;7.920;2023-01-06T04:25:09;8.38;;;7.25;;
29662;SDS011;16578;53.266;7.920;2023-01-06T04:27:35;9.73;;;7.30;;
29662;SDS011;16578;53.266;7.920;2023-01-06T04:30:01;11.10;;;6.82;;
29662;SDS011;16578;53.266;7.920;2023-01-06T04:32:27;10.43;;;7.45;;
29662;SDS011;16578;53.266;7.920;2023-01-06T04:34:53;8.45;;;7.10;;
29662;SDS011;16578;53.266;7.920;2023-01-06T04:37:18;7.50;;;6.70;;
29662;SDS011;16578;53.266;7.920;2023-01-06T04:39:44;11.68;;;7.78;;
29662;SDS011;16578;53.266;7.920;2023-01-06T04:42:09;10.00;;;6.93;;
29662;SDS011;16578;53.266;7.920;2023-01-06T04:44:35;9.45;;;6.93;;
29662;SDS011;16578;53.266;7.920;2023-01-06T04:47:00;12.02;;;7.57;;
29662;SDS011;16578;53.266;7.920;2023-01-06T04:49:26;9.05;;;7.85;;
29662;SDS011;16578;53.266;7.920;2023-01-06T04:51:52;10.73;;;9.15;;
29662;SDS011;16578;53.266;7.920;2023-01-06T04:54:17;10.90;;;9.70;;
29662;SDS011;16578;53.266;7.920;2023-01-06T04:56:43;12.10;;;10.45;;
29662;SDS011;16578;53.266;7.920;2023-01-06T04:59:09;11.45;;;10.32;;
29662;SDS011;16578;53.266;7.920;2023-01-06T05:01:34;13.85;;;11.43;;
29662;SDS011;16578;53.266;7.920;2023-01-06T05:04:01;16.08;;;12.25;;
29662;SDS011;16578;53.266;7.920;2023-01-06T05:06:27;14.32;;;12.82;;
29662;SDS011;16578;53.266;7.920;2023-01-06T05:08:53;14.07;;;12.63;;
29662;SDS011;16578;53.266;7.920;2023-01-06T05:11:22;13.48;;;11.30;;
29662;SDS011;16578;53.266;7.920;2023-01-06T05:13:49;14.77;;;12.93;;
29662;SDS011;16578;53.266;7.920;2023-01-06T05:16:25;14.20;;;12.90;;
29662;SDS011;16578;53.266;7.920;2023-01-06T05:18:55;14.60;;;13.10;;
29662;SDS011;16578;53.266;7.920;2023-01-06T05:21:21;14.73;;;13.23;;
29662;SDS011;16578;53.266;7.920;2023-01-06T05:23:51;13.85;;;12.40;;
29662;SDS011;16578;53.266;7.920;2023-01-06T05:26:18;13.63;;;12.15;;
29662;SDS011;16578;53.266;7.920;2023-01-06T05:28:49;11.95;;;10.77;;
29662;SDS011;16578;53.266;7.920;2023-01-06T05:31:14;12.57;;;11.27;;
29662;SDS011;16578;53.266;7.920;2023-01-06T05:33:40;11.73;;;10.60;;
29662;SDS011;16578;53.266;7.920;2023-01-06T05:36:07;11.35;;;10.25;;
29662;SDS011;16578;53.266;7.920;2023-01-06T05:41:00;12.07;;;10.50;;
29662;SDS011;16578;53.266;7.920;2023-01-06T05:43:26;12.15;;;10.45;;
29662;SDS011;16578;53.266;7.920;2023-01-06T05:45:52;11.65;;;10.15;;
29662;SDS011;16578;53.266;7.920;2023-01-06T05:48:18;13.43;;;10.85;;
29662;SDS011;16578;53.266;7.920;2023-01-06T05:50:45;12.05;;;10.68;;
29662;SDS011;16578;53.266;7.920;2023-01-06T05:53:10;11.90;;;10.75;;
29662;SDS011;16578;53.266;7.920;2023-01-06T05:55:36;10.23;;;9.32;;
29662;SDS011;16578;53.266;7.920;2023-01-06T05:58:01;11.68;;;8.85;;
29662;SDS011;16578;53.266;7.920;2023-01-06T06:00:27;10.40;;;8.98;;
29662;SDS011;16578;53.266;7.920;2023-01-06T06:02:53;9.90;;;8.98;;
29662;SDS011;16578;53.266;7.920;2023-01-06T06:05:19;10.27;;;9.38;;
29662;SDS011;16578;53.266;7.920;2023-01-06T06:07:51;10.30;;;9.18;;
29662;SDS011;16578;53.266;7.920;2023-01-06T06:10:17;10.48;;;9.32;;
29662;SDS011;16578;53.266;7.920;2023-01-06T06:12:43;12.73;;;9.13;;
29662;SDS011;16578;53.266;7.920;2023-01-06T06:15:08;8.93;;;8.13;;
29662;SDS011;16578;53.266;7.920;2023-01-06T06:17:34;9.20;;;8.15;;
29662;SDS011;16578;53.266;7.920;2023-01-06T06:19:59;7.95;;;7.13;;
29662;SDS011;16578;53.266;7.920;2023-01-06T06:22:25;8.43;;;7.53;;
29662;SDS011;16578;53.266;7.920;2023-01-06T06:24:50;10.13;;;9.13;;
29662;SDS011;16578;53.266;7.920;2023-01-06T06:27:16;9.55;;;8.15;;
29662;SDS011;16578;53.266;7.920;2023-01-06T06:29:41;8.65;;;7.72;;
29662;SDS011;16578;53.266;7.920;2023-01-06T06:32:07;8.57;;;7.78;;
29662;SDS011;16578;53.266;7.920;2023-01-06T06:34:32;9.05;;;7.53;;
29662;SDS011;16578;53.266;7.920;2023-01-06T06:36:58;8.75;;;7.07;;
29662;SDS011;16578;53.266;7.920;2023-01-06T06:39:23;7.30;;;6.60;;
29662;SDS011;16578;53.266;7.920;2023-01-06T06:41:49;9.90;;;5.95;;
29662;SDS011;16578;53.266;7.920;2023-01-06T06:44:15;7.68;;;5.95;;
29662;SDS011;16578;53.266;7.920;2023-01-06T06:46:40;6.82;;;6.07;;
29662;SDS011;16578;53.266;7.920;2023-01-06T06:49:06;6.68;;;5.63;;
29662;SDS011;16578;53.266;7.920;2023-01-06T06:51:31;7.25;;;5.50;;
29662;SDS011;16578;53.266;7.920;2023-01-06T06:53:57;6.25;;;5.65;;
29662;SDS011;16578;53.266;7.920;2023-01-06T06:56:22;5.20;;;4.68;;
29662;SDS011;16578;53.266;7.920;2023-01-06T06:58:48;8.15;;;5.45;;
29662;SDS011;16578;53.266;7.920;2023-01-06T07:01:15;9.35;;;5.07;;
29662;SDS011;16578;53.266;7.920;2023-01-06T07:03:43;5.28;;;4.60;;
29662;SDS011;16578;53.266;7.920;2023-01-06T07:06:13;5.45;;;4.95;;
29662;SDS011;16578;53.266;7.920;2023-01-06T07:08:43;5.50;;;4.80;;
29662;SDS011;16578;53.266;7.920;2023-01-06T07:11:10;6.65;;;4.25;;
29662;SDS011;16578;53.266;7.920;2023-01-06T07:13:36;5.03;;;3.95;;
29662;SDS011;16578;53.266;7.920;2023-01-06T07:16:01;5.13;;;3.72;;
29662;SDS011;16578;53.266;7.920;2023-01-06T07:18:27;4.35;;;3.50;;
29662;SDS011;16578;53.266;7.920;2023-01-06T07:20:52;4.85;;;3.80;;
29662;SDS011;16578;53.266;7.920;2023-01-06T07:23:18;5.10;;;3.70;;
29662;SDS011;16578;53.266;7.920;2023-01-06T07:25:45;5.90;;;3.45;;
29662;SDS011;16578;53.266;7.920;2023-01-06T07:28:19;4.38;;;3.25;;
29662;SDS011;16578;53.266;7.920;2023-01-06T07:30:44;4.60;;;3.33;;
29662;SDS011;16578;53.266;7.920;2023-01-06T07:33:10;4.72;;;3.50;;
29662;SDS011;16578;53.266;7.920;2023-01-06T07:35:36;2.85;;;2.50;;
29662;SDS011;16578;53.266;7.920;2023-01-06T07:38:02;3.78;;;2.60;;
29662;SDS011;16578;53.266;7.920;2023-01-06T07:40:29;4.10;;;2.50;;
29662;SDS011;16578;53.266;7.920;2023-01-06T07:42:54;2.60;;;2.40;;
29662;SDS011;16578;53.266;7.920;2023-01-06T07:45:20;2.90;;;2.35;;
29662;SDS011;16578;53.266;7.920;2023-01-06T07:47:45;3.50;;;2.58;;
29662;SDS011;16578;53.266;7.920;2023-01-06T07:50:11;3.42;;;2.65;;
29662;SDS011;16578;53.266;7.920;2023-01-06T07:52:36;3.50;;;2.75;;
29662;SDS011;16578;53.266;7.920;2023-01-06T07:55:02;4.75;;;2.78;;
29662;SDS011;16578;53.266;7.920;2023-01-06T07:57:28;4.50;;;2.58;;
29662;SDS011;16578;53.266;7.920;2023-01-06T07:59:54;3.33;;;2.45;;
29662;SDS011;16578;53.266;7.920;2023-01-06T08:02:20;3.00;;;2.67;;
29662;SDS011;16578;53.266;7.920;2023-01-06T08:04:46;4.03;;;2.42;;
29662;SDS011;16578;53.266;7.920;2023-01-06T08:07:12;3.58;;;2.55;;
29662;SDS011;16578;53.266;7.920;2023-01-06T08:09:38;2.97;;;2.60;;
29662;SDS011;16578;53.266;7.920;2023-01-06T08:12:03;3.45;;;2.55;;
29662;SDS011;16578;53.266;7.920;2023-01-06T08:14:29;4.72;;;2.47;;
29662;SDS011;16578;53.266;7.920;2023-01-06T08:16:54;4.55;;;2.25;;
29662;SDS011;16578;53.266;7.920;2023-01-06T08:19:20;2.85;;;2.47;;
29662;SDS011;16578;53.266;7.920;2023-01-06T08:21:46;4.40;;;2.78;;
29662;SDS011;16578;53.266;7.920;2023-01-06T08:24:11;3.05;;;2.75;;
29662;SDS011;16578;53.266;7.920;2023-01-06T08:26:37;3.88;;;2.70;;
29662;SDS011;16578;53.266;7.920;2023-01-06T08:29:02;2.38;;;2.08;;
29662;SDS011;16578;53.266;7.920;2023-01-06T08:31:28;2.97;;;2.10;;
29662;SDS011;16578;53.266;7.920;2023-01-06T08:33:53;3.80;;;2.67;;
29662;SDS011;16578;53.266;7.920;2023-01-06T08:36:20;2.28;;;1.90;;
29662;SDS011;16578;53.266;7.920;2023-01-06T08:38:48;2.53;;;2.05;;
29662;SDS011;16578;53.266;7.920;2023-01-06T08:41:15;2.70;;;2.28;;
29662;SDS011;16578;53.266;7.920;2023-01-06T08:43:41;2.42;;;2.22;;
29662;SDS011;16578;53.266;7.920;2023-01-06T08:46:09;3.72;;;2.47;;
29662;SDS011;16578;53.266;7.920;2023-01-06T08:48:37;2.28;;;1.92;;
29662;SDS011;16578;53.266;7.920;2023-01-06T08:51:11;2.08;;;1.80;;
29662;SDS011;16578;53.266;7.920;2023-01-06T08:53:38;2.95;;;2.13;;
29662;SDS011;16578;53.266;7.920;2023-01-06T08:56:09;2.50;;;2.30;;
29662;SDS011;16578;53.266;7.920;2023-01-06T08:58:37;2.25;;;2.10;;
29662;SDS011;16578;53.266;7.920;2023-01-06T09:01:04;2.35;;;2.03;;
29662;SDS011;16578;53.266;7.920;2023-01-06T09:03:29;2.17;;;1.98;;
29662;SDS011;16578;53.266;7.920;2023-01-06T09:05:55;1.92;;;1.77;;
29662;SDS011;16578;53.266;7.920;2023-01-06T09:08:22;3.13;;;1.85;;
29662;SDS011;16578;53.266;7.920;2023-01-06T09:10:48;2.25;;;2.05;;
29662;SDS011;16578;53.266;7.920;2023-01-06T09:13:14;2.45;;;2.05;;
29662;SDS011;16578;53.266;7.920;2023-01-06T09:15:41;2.03;;;1.83;;
29662;SDS011;16578;53.266;7.920;2023-01-06T09:18:07;4.32;;;1.95;;
29662;SDS011;16578;53.266;7.920;2023-01-06T09:20:34;1.98;;;1.63;;
29662;SDS011;16578;53.266;7.920;2023-01-06T09:23:00;2.15;;;1.70;;
29662;SDS011;16578;53.266;7.920;2023-01-06T09:25:26;2.70;;;1.60;;
29662;SDS011;16578;53.266;7.920;2023-01-06T09:27:51;3.15;;;1.95;;
29662;SDS011;16578;53.266;7.920;2023-01-06T09:30:17;3.38;;;1.88;;
29662;SDS011;16578;53.266;7.920;2023-01-06T09:32:43;2.10;;;1.38;;
29662;SDS011;16578;53.266;7.920;2023-01-06T09:35:08;2.80;;;1.70;;
29662;SDS011;16578;53.266;7.920;2023-01-06T09:37:34;3.25;;;1.20;;
29662;SDS011;16578;53.266;7.920;2023-01-06T09:40:00;3.42;;;1.10;;
29662;SDS011;16578;53.266;7.920;2023-01-06T09:45:38;1.38;;;0.90;;
29662;SDS011;16578;53.266;7.920;2023-01-06T09:48:12;1.52;;;0.90;;
29662;SDS011;16578;53.266;7.920;2023-01-06T09:50:45;1.90;;;0.98;;
29662;SDS011;16578;53.266;7.920;2023-01-06T09:55:52;2.55;;;0.90;;
29662;SDS011;16578;53.266;7.920;2023-01-06T09:59:07;3.53;;;1.13;;
29662;SDS011;16578;53.266;7.920;2023-01-06T10:01:12;3.88;;;1.13;;
29662;SDS011;16578;53.266;7.920;2023-01-06T10:03:40;2.55;;;1.02;;
29662;SDS011;16578;53.266;7.920;2023-01-06T10:09:06;1.60;;;0.70;;
29662;SDS011;16578;53.266;7.920;2023-01-06T10:25:26;4.57;;;0.85;;
29662;SDS011;16578;53.266;7.920;2023-01-06T10:28:12;1.83;;;0.77;;
29662;SDS011;16578;53.266;7.920;2023-01-06T10:30:43;12.70;;;1.65;;
29662;SDS011;16578;53.266;7.920;2023-01-06T10:33:30;2.67;;;0.85;;
29662;SDS011;16578;53.266;7.920;2023-01-06T10:35:58;4.50;;;1.13;;
29662;SDS011;16578;53.266;7.920;2023-01-06T10:38:29;2.42;;;0.90;;
29662;SDS011;16578;53.266;7.920;2023-01-06T10:41:01;5.70;;;0.90;;
29662;SDS011;16578;53.266;7.920;2023-01-06T10:43:37;3.13;;;0.80;;
29662;SDS011;16578;53.266;7.920;2023-01-06T10:46:02;1.63;;;1.00;;
29662;SDS011;16578;53.266;7.920;2023-01-06T10:48:28;4.00;;;1.20;;
29662;SDS011;16578;53.266;7.920;2023-01-06T10:50:56;3.63;;;0.87;;
29662;SDS011;16578;53.266;7.920;2023-01-06T10:53:21;3.90;;;1.27;;
29662;SDS011;16578;53.266;7.920;2023-01-06T10:55:54;1.95;;;1.00;;
29662;SDS011;16578;53.266;7.920;2023-01-06T11:03:36;7.15;;;1.42;;
29662;SDS011;16578;53.266;7.920;2023-01-06T11:06:24;2.88;;;1.30;;
29662;SDS011;16578;53.266;7.920;2023-01-06T11:08:50;10.05;;;1.40;;
29662;SDS011;16578;53.266;7.920;2023-01-06T11:11:16;4.47;;;1.60;;
29662;SDS011;16578;53.266;7.920;2023-01-06T11:13:50;3.83;;;1.45;;
29662;SDS011;16578;53.266;7.920;2023-01-06T11:16:32;6.90;;;1.60;;
29662;SDS011;16578;53.266;7.920;2023-01-06T11:19:00;2.88;;;1.10;;
29662;SDS011;16578;53.266;7.920;2023-01-06T11:21:41;6.88;;;1.27;;
29662;SDS011;16578;53.266;7.920;2023-01-06T11:24:15;3.72;;;1.23;;
29662;SDS011;16578;53.266;7.920;2023-01-06T11:26:59;6.90;;;1.85;;
29662;SDS011;16578;53.266;7.920;2023-01-06T11:29:33;7.20;;;1.17;;
29662;SDS011;16578;53.266;7.920;2023-01-06T11:32:01;4.05;;;1.25;;
29662;SDS011;16578;53.266;7.920;2023-01-06T11:34:29;7.07;;;1.73;;
29662;SDS011;16578;53.266;7.920;2023-01-06T11:36:55;8.57;;;1.60;;
29662;SDS011;16578;53.266;7.920;2023-01-06T11:39:23;6.38;;;1.83;;
29662;SDS011;16578;53.266;7.920;2023-01-06T11:42:16;4.30;;;1.70;;
29662;SDS011;16578;53.266;7.920;2023-01-06T11:44:42;7.85;;;1.60;;
29662;SDS011;16578;53.266;7.920;2023-01-06T11:47:16;6.30;;;1.73;;
29662;SDS011;16578;53.266;7.920;2023-01-06T11:49:50;3.50;;;1.35;;
29662;SDS011;16578;53.266;7.920;2023-01-06T11:52:22;6.10;;;1.85;;
29662;SDS011;16578;53.266;7.920;2023-01-06T11:55:34;5.82;;;1.70;;
29662;SDS011;16578;53.266;7.920;2023-01-06T11:57:39;3.28;;;1.00;;
29662;SDS011;16578;53.266;7.920;2023-01-06T12:00:33;5.72;;;1.58;;
29662;SDS011;16578;53.266;7.920;2023-01-06T12:05:44;5.07;;;1.40;;
29662;SDS011;16578;53.266;7.920;2023-01-06T12:08:22;4.20;;;1.20;;
29662;SDS011;16578;53.266;7.920;2023-01-06T12:10:52;6.25;;;1.75;;
29662;SDS011;16578;53.266;7.920;2023-01-06T12:13:24;8.70;;;1.10;;
29662;SDS011;16578;53.266;7.920;2023-01-06T12:16:01;8.60;;;2.10;;
29662;SDS011;16578;53.266;7.920;2023-01-06T12:18:32;4.85;;;1.20;;
29662;SDS011;16578;53.266;7.920;2023-01-06T12:21:00;5.72;;;1.48;;
29662;SDS011;16578;53.266;7.920;2023-01-06T12:23:30;4.15;;;1.67;;
29662;SDS011;16578;53.266;7.920;2023-01-06T12:26:00;5.88;;;1.17;;
29662;SDS011;16578;53.266;7.920;2023-01-06T12:28:32;4.53;;;1.70;;
29662;SDS011;16578;53.266;7.920;2023-01-06T12:31:14;6.65;;;1.55;;
29662;SDS011;16578;53.266;7.920;2023-01-06T12:34:01;5.68;;;1.40;;
29662;SDS011;16578;53.266;7.920;2023-01-06T12:39:12;8.00;;;2.08;;
29662;SDS011;16578;53.266;7.920;2023-01-06T12:44:47;6.20;;;1.55;;
29662;SDS011;16578;53.266;7.920;2023-01-06T12:55:04;4.85;;;1.80;;
29662;SDS011;16578;53.266;7.920;2023-01-06T13:00:15;8.00;;;2.30;;
29662;SDS011;16578;53.266;7.920;2023-01-06T13:08:49;5.50;;;1.83;;
29662;SDS011;16578;53.266;7.920;2023-01-06T13:15:21;6.63;;;2.10;;
29662;SDS011;16578;53.266;7.920;2023-01-06T13:17:32;7.95;;;2.10;;
29662;SDS011;16578;53.266;7.920;2023-01-06T13:20:05;6.60;;;1.80;;
29662;SDS011;16578;53.266;7.920;2023-01-06T13:23:06;7.75;;;1.83;;
29662;SDS011;16578;53.266;7.920;2023-01-06T13:25:52;4.10;;;1.70;;
29662;SDS011;16578;53.266;7.920;2023-01-06T13:29:17;5.20;;;1.92;;
29662;SDS011;16578;53.266;7.920;2023-01-06T13:39:38;4.75;;;1.67;;
29662;SDS011;16578;53.266;7.920;2023-01-06T13:43:14;9.85;;;2.17;;
29662;SDS011;16578;53.266;7.920;2023-01-06T13:45:31;6.88;;;2.15;;
29662;SDS011;16578;53.266;7.920;2023-01-06T13:48:00;10.73;;;3.05;;
29662;SDS011;16578;53.266;7.920;2023-01-06T13:50:32;5.95;;;2.25;;
29662;SDS011;16578;53.266;7.920;2023-01-06T13:53:00;10.07;;;2.10;;
29662;SDS011;16578;53.266;7.920;2023-01-06T13:55:27;10.20;;;2.03;;
29662;SDS011;16578;53.266;7.920;2023-01-06T13:57:55;3.97;;;1.60;;
29662;SDS011;16578;53.266;7.920;2023-01-06T14:00:26;6.73;;;1.70;;
29662;SDS011;16578;53.266;7.920;2023-01-06T14:02:57;8.20;;;1.92;;
29662;SDS011;16578;53.266;7.920;2023-01-06T14:07:52;5.97;;;1.75;;
29662;SDS011;16578;53.266;7.920;2023-01-06T14:10:34;7.50;;;2.00;;
29662;SDS011;16578;53.266;7.920;2023-01-06T14:13:27;8.80;;;2.78;;
29662;SDS011;16578;53.266;7.920;2023-01-06T14:15:56;10.23;;;2.13;;
29662;SDS011;16578;53.266;7.920;2023-01-06T14:18:44;5.75;;;2.00;;
29662;SDS011;16578;53.266;7.920;2023-01-06T14:21:31;8.40;;;2.05;;
29662;SDS011;16578;53.266;7.920;2023-01-06T14:23:58;9.02;;;2.35;;
29662;SDS011;16578;53.266;7.920;2023-01-06T14:26:43;9.10;;;2.50;;
29662;SDS011;16578;53.266;7.920;2023-01-06T14:32:06;9.10;;;1.98;;
29662;SDS011;16578;53.266;7.920;2023-01-06T14:34:33;6.80;;;3.00;;
29662;SDS011;16578;53.266;7.920;2023-01-06T14:37:00;7.63;;;2.58;;
29662;SDS011;16578;53.266;7.920;2023-01-06T14:39:27;6.05;;;2.20;;
29662;SDS011;16578;53.266;7.920;2023-01-06T14:41:59;6.57;;;1.97;;
29662;SDS011;16578;53.266;7.920;2023-01-06T14:44:40;5.07;;;1.65;;
29662;SDS011;16578;53.266;7.920;2023-01-06T14:50:03;4.05;;;1.55;;
29662;SDS011;16578;53.266;7.920;2023-01-06T14:52:34;6.68;;;1.92;;
29662;SDS011;16578;53.266;7.920;2023-01-06T14:55:07;9.07;;;2.08;;
29662;SDS011;16578;53.266;7.920;2023-01-06T14:57:39;11.15;;;2.00;;
29662;SDS011;16578;53.266;7.920;2023-01-06T15:00:15;6.90;;;2.42;;
29662;SDS011;16578;53.266;7.920;2023-01-06T15:03:01;10.17;;;2.10;;
29662;SDS011;16578;53.266;7.920;2023-01-06T15:05:29;6.07;;;1.98;;
29662;SDS011;16578;53.266;7.920;2023-01-06T15:10:35;9.30;;;2.33;;
29662;SDS011;16578;53.266;7.920;2023-01-06T15:13:02;14.40;;;2.13;;
29662;SDS011;16578;53.266;7.920;2023-01-06T15:18:53;8.15;;;1.88;;
29662;SDS011;16578;53.266;7.920;2023-01-06T15:21:20;7.88;;;2.50;;
29662;SDS011;16578;53.266;7.920;2023-01-06T15:23:46;7.30;;;2.35;;
29662;SDS011;16578;53.266;7.920;2023-01-06T15:26:27;7.00;;;2.58;;
29662;SDS011;16578;53.266;7.920;2023-01-06T15:28:55;13.48;;;2.53;;
29662;SDS011;16578;53.266;7.920;2023-01-06T15:31:26;10.45;;;2.78;;
29662;SDS011;16578;53.266;7.920;2023-01-06T15:33:56;6.32;;;2.13;;
29662;SDS011;16578;53.266;7.920;2023-01-06T15:36:23;7.03;;;1.88;;
29662;SDS011;16578;53.266;7.920;2023-01-06T15:38:50;4.57;;;1.70;;
29662;SDS011;16578;53.266;7.920;2023-01-06T15:41:18;6.72;;;2.00;;
29662;SDS011;16578;53.266;7.920;2023-01-06T15:43:56;6.80;;;2.30;;
29662;SDS011;16578;53.266;7.920;2023-01-06T15:46:23;9.55;;;1.95;;
29662;SDS011;16578;53.266;7.920;2023-01-06T15:48:51;7.82;;;2.13;;
29662;SDS011;16578;53.266;7.920;2023-01-06T15:51:17;5.80;;;1.90;;
29662;SDS011;16578;53.266;7.920;2023-01-06T15:53:45;6.88;;;1.75;;
29662;SDS011;16578;53.266;7.920;2023-01-06T15:56:18;10.90;;;2.53;;
29662;SDS011;16578;53.266;7.920;2023-01-06T15:58:49;6.75;;;2.65;;
29662;SDS011;16578;53.266;7.920;2023-01-06T16:01:17;12.30;;;2.10;;
29662;SDS011;16578;53.266;7.920;2023-01-06T16:03:45;8.70;;;1.90;;
29662;SDS011;16578;53.266;7.920;2023-01-06T16:06:30;5.82;;;2.00;;
29662;SDS011;16578;53.266;7.920;2023-01-06T16:19:45;13.00;;;3.92;;
29662;SDS011;16578;53.266;7.920;2023-01-06T16:25:00;8.05;;;2.47;;
29662;SDS011;16578;53.266;7.920;2023-01-06T16:27:28;7.55;;;3.00;;
29662;SDS011;16578;53.266;7.920;2023-01-06T16:30:09;10.82;;;4.57;;
29662;SDS011;16578;53.266;7.920;2023-01-06T16:32:38;6.05;;;3.10;;
29662;SDS011;16578;53.266;7.920;2023-01-06T16:35:13;6.65;;;2.95;;
29662;SDS011;16578;53.266;7.920;2023-01-06T16:37:43;7.90;;;2.88;;
29662;SDS011;16578;53.266;7.920;2023-01-06T16:40:09;6.97;;;2.47;;
29662;SDS011;16578;53.266;7.920;2023-01-06T16:42:39;9.38;;;2.53;;
29662;SDS011;16578;53.266;7.920;2023-01-06T16:47:41;6.22;;;2.55;;
29662;SDS011;16578;53.266;7.920;2023-01-06T16:52:49;4.90;;;2.40;;
29662;SDS011;16578;53.266;7.920;2023-01-06T16:55:23;7.57;;;2.50;;
29662;SDS011;16578;53.266;7.920;2023-01-06T16:57:48;8.80;;;2.35;;
29662;SDS011;16578;53.266;7.920;2023-01-06T17:00:16;7.18;;;2.20;;
29662;SDS011;16578;53.266;7.920;2023-01-06T17:02:43;7.07;;;2.58;;
29662;SDS011;16578;53.266;7.920;2023-01-06T17:05:23;6.55;;;2.20;;
29662;SDS011;16578;53.266;7.920;2023-01-06T17:07:57;4.10;;;2.20;;
29662;SDS011;16578;53.266;7.920;2023-01-06T17:10:25;8.18;;;2.28;;
29662;SDS011;16578;53.266;7.920;2023-01-06T17:12:56;14.93;;;2.83;;